sensor_id;sensor_type;location;lat;lon;timestamp;pressure;altitude;pressure_sealevel;temperature;humidity
14612;BME280;7392;52.078;11.650;2022-09-09T00:00:21;100305.69;;;14.12;100.00
14612;BME280;7392;52.078;11.650;2022-09-09T00:02:55;100302.19;;;14.10;100.00
14612;BME280;7392;52.078;11.650;2022-09-09T00:05:31;100310.16;;;14.11;100.00
14612;BME280;7392;52.078;11.650;2022-09-09T00:08:02;100304.88;;;14.10;100.00
14612;BME280;7392;52.078;11.650;2022-09-09T00:10:36;100319.13;;;14.09;100.00
14612;BME280;7392;52.078;11.650;2022-09-09T00:13:13;100316.47;;;14.07;100.00
14612;BME280;7392;52.078;11.650;2022-09-09T00:15:52;100320.06;;;14.08;100.00
14612;BME280;7392;52.078;11.650;2022-09-09T00:18:27;100308.56;;;14.04;100.00
14612;BME280;7392;52.078;11.650;2022-09-09T00:21:00;100313.00;;;14.03;100.00
14612;BME280;7392;52.078;11.650;2022-09-09T00:23:32;100313.03;;;14.02;100.00
14612;BME280;7392;52.078;11.650;2022-09-09T00:26:09;100308.63;;;14.01;100.00
14612;BME280;7392;52.078;11.650;2022-09-09T00:28:43;100308.66;;;13.99;100.00
14612;BME280;7392;52.078;11.650;2022-09-09T00:31:18;100313.13;;;13.99;100.00
14612;BME280;7392;52.078;11.650;2022-09-09T00:33:49;100311.41;;;13.96;100.00
14612;BME280;7392;52.078;11.650;2022-09-09T00:36:21;100308.75;;;13.95;100.00
14612;BME280;7392;52.078;11.650;2022-09-09T00:38:55;100308.78;;;13.93;100.00
14612;BME280;7392;52.078;11.650;2022-09-09T00:41:34;100306.16;;;13.92;100.00
14612;BME280;7392;52.078;11.650;2022-09-09T00:44:17;100299.13;;;13.89;100.00
14612;BME280;7392;52.078;11.650;2022-09-09T00:47:04;100290.28;;;13.87;100.00
14612;BME280;7392;52.078;11.650;2022-09-09T00:49:44;100306.34;;;13.84;100.00
14612;BME280;7392;52.078;11.650;2022-09-09T00:52:30;100303.72;;;13.82;100.00
14612;BME280;7392;52.078;11.650;2022-09-09T00:55:07;100303.78;;;13.79;100.00
14612;BME280;7392;52.078;11.650;2022-09-09T00:57:40;100302.06;;;13.77;100.00
14612;BME280;7392;52.078;11.650;2022-09-09T01:00:21;100293.19;;;13.75;100.00
14612;BME280;7392;52.078;11.650;2022-09-09T01:02:59;100295.94;;;13.72;100.00
14612;BME280;7392;52.078;11.650;2022-09-09T01:05:35;100299.56;;;13.69;100.00
14612;BME280;7392;52.078;11.650;2022-09-09T01:08:12;100297.88;;;13.65;100.00
14612;BME280;7392;52.078;11.650;2022-09-09T01:10:50;100304.16;;;13.61;100.00
14612;BME280;7392;52.078;11.650;2022-09-09T01:13:25;100311.38;;;13.57;100.00
14612;BME280;7392;52.078;11.650;2022-09-09T01:15:59;100307.03;;;13.52;100.00
14612;BME280;7392;52.078;11.650;2022-09-09T01:18:35;100306.25;;;13.48;100.00
14612;BME280;7392;52.078;11.650;2022-09-09T01:21:13;100303.66;;;13.43;100.00
14612;BME280;7392;52.078;11.650;2022-09-09T01:23:56;100304.63;;;13.41;100.00
14612;BME280;7392;52.078;11.650;2022-09-09T01:26:47;100302.03;;;13.36;100.00
14612;BME280;7392;52.078;11.650;2022-09-09T01:29:24;100300.28;;;13.34;100.00
14612;BME280;7392;52.078;11.650;2022-09-09T01:31:54;100302.06;;;13.35;100.00
14612;BME280;7392;52.078;11.650;2022-09-09T01:34:24;100306.56;;;13.33;100.00
14612;BME280;7392;52.078;11.650;2022-09-09T01:36:57;100311.88;;;13.31;100.00
14612;BME280;7392;52.078;11.650;2022-09-09T01:39:27;100306.56;;;13.31;100.00
14612;BME280;7392;52.078;11.650;2022-09-09T01:42:02;100312.78;;;13.32;100.00
14612;BME280;7392;52.078;11.650;2022-09-09T01:44:32;100316.34;;;13.31;100.00
14612;BME280;7392;52.078;11.650;2022-09-09T01:47:01;100315.44;;;13.30;100.00
14612;BME280;7392;52.078;11.650;2022-09-09T01:49:29;100312.81;;;13.28;100.00
14612;BME280;7392;52.078;11.650;2022-09-09T01:52:05;100311.94;;;13.28;100.00
14612;BME280;7392;52.078;11.650;2022-09-09T01:54:37;100315.50;;;13.27;100.00
14612;BME280;7392;52.078;11.650;2022-09-09T01:57:17;100312.91;;;13.25;100.00
14612;BME280;7392;52.078;11.650;2022-09-09T01:59:53;100313.78;;;13.26;100.00
14612;BME280;7392;52.078;11.650;2022-09-09T02:02:26;100304.03;;;13.23;100.00
14612;BME280;7392;52.078;11.650;2022-09-09T02:05:18;100305.81;;;13.23;100.00
14612;BME280;7392;52.078;11.650;2022-09-09T02:07:56;100304.97;;;13.21;100.00
14612;BME280;7392;52.078;11.650;2022-09-09T02:10:40;100302.34;;;13.19;100.00
14612;BME280;7392;52.078;11.650;2022-09-09T02:13:22;100309.50;;;13.17;100.00
14612;BME280;7392;52.078;11.650;2022-09-09T02:15:53;100304.16;;;13.17;100.00
14612;BME280;7392;52.078;11.650;2022-09-09T02:18:26;100298.84;;;13.16;100.00
14612;BME280;7392;52.078;11.650;2022-09-09T02:20:56;100301.53;;;13.16;100.00
14612;BME280;7392;52.078;11.650;2022-09-09T02:23:25;100310.41;;;13.16;100.00
14612;BME280;7392;52.078;11.650;2022-09-09T02:25:56;100307.72;;;13.16;100.00
14612;BME280;7392;52.078;11.650;2022-09-09T02:28:29;100315.72;;;13.16;100.00
14612;BME280;7392;52.078;11.650;2022-09-09T02:31:00;100309.50;;;13.17;100.00
14612;BME280;7392;52.078;11.650;2022-09-09T02:33:38;100305.94;;;13.17;100.00
14612;BME280;7392;52.078;11.650;2022-09-09T02:36:08;100305.06;;;13.16;100.00
14612;BME280;7392;52.078;11.650;2022-09-09T02:38:45;100303.25;;;13.17;100.00
14612;BME280;7392;52.078;11.650;2022-09-09T02:41:18;100303.34;;;13.14;100.00
14612;BME280;7392;52.078;11.650;2022-09-09T02:43:50;100306.88;;;13.14;100.00
14612;BME280;7392;52.078;11.650;2022-09-09T02:46:27;100298.88;;;13.14;100.00
14612;BME280;7392;52.078;11.650;2022-09-09T02:49:03;100304.25;;;13.13;100.00
14612;BME280;7392;52.078;11.650;2022-09-09T02:51:40;100292.72;;;13.12;100.00
14612;BME280;7392;52.078;11.650;2022-09-09T02:54:17;100300.75;;;13.10;100.00
14612;BME280;7392;52.078;11.650;2022-09-09T02:56:52;100296.28;;;13.11;100.00
14612;BME280;7392;52.078;11.650;2022-09-09T02:59:33;100306.06;;;13.10;100.00
14612;BME280;7392;52.078;11.650;2022-09-09T03:02:01;100299.91;;;13.08;100.00
14612;BME280;7392;52.078;11.650;2022-09-09T03:04:30;100295.44;;;13.09;100.00
14612;BME280;7392;52.078;11.650;2022-09-09T03:06:59;100298.97;;;13.09;100.00
14612;BME280;7392;52.078;11.650;2022-09-09T03:09:27;100302.56;;;13.08;100.00
14612;BME280;7392;52.078;11.650;2022-09-09T03:11:55;100293.66;;;13.08;100.00
14612;BME280;7392;52.078;11.650;2022-09-09T03:14:24;100295.50;;;13.06;100.00
14612;BME280;7392;52.078;11.650;2022-09-09T03:16:54;100302.63;;;13.05;100.00
14612;BME280;7392;52.078;11.650;2022-09-09T03:19:23;100303.50;;;13.04;100.00
14612;BME280;7392;52.078;11.650;2022-09-09T03:21:52;100308.84;;;13.04;100.00
14612;BME280;7392;52.078;11.650;2022-09-09T03:24:20;100309.78;;;13.03;100.00
14612;BME280;7392;52.078;11.650;2022-09-09T03:26:49;100302.72;;;12.99;100.00
14612;BME280;7392;52.078;11.650;2022-09-09T03:29:18;100308.09;;;12.98;100.00
14612;BME280;7392;52.078;11.650;2022-09-09T03:31:46;100302.81;;;12.95;100.00
14612;BME280;7392;52.078;11.650;2022-09-09T03:34:15;100301.09;;;12.92;100.00
14612;BME280;7392;52.078;11.650;2022-09-09T03:36:43;100301.13;;;12.90;100.00
14612;BME280;7392;52.078;11.650;2022-09-09T03:39:11;100308.25;;;12.88;100.00
14612;BME280;7392;52.078;11.650;2022-09-09T03:41:41;100301.16;;;12.87;100.00
14612;BME280;7392;52.078;11.650;2022-09-09T03:44:13;100303.81;;;12.87;100.00
14612;BME280;7392;52.078;11.650;2022-09-09T03:46:42;100309.19;;;12.86;100.00
14612;BME280;7392;52.078;11.650;2022-09-09T03:49:09;100295.00;;;12.85;100.00
14612;BME280;7392;52.078;11.650;2022-09-09T03:51:39;100293.28;;;12.83;100.00
14612;BME280;7392;52.078;11.650;2022-09-09T03:54:09;100302.16;;;12.82;100.00
14612;BME280;7392;52.078;11.650;2022-09-09T03:56:37;100311.06;;;12.81;100.00
14612;BME280;7392;52.078;11.650;2022-09-09T03:59:06;100312.88;;;12.79;100.00
14612;BME280;7392;52.078;11.650;2022-09-09T04:01:35;100307.56;;;12.77;100.00
14612;BME280;7392;52.078;11.650;2022-09-09T04:04:02;100304.91;;;12.77;100.00
14612;BME280;7392;52.078;11.650;2022-09-09T04:06:30;100297.88;;;12.75;100.00
14612;BME280;7392;52.078;11.650;2022-09-09T04:08:59;100304.06;;;12.75;100.00
14612;BME280;7392;52.078;11.650;2022-09-09T04:11:30;100306.69;;;12.77;100.00
14612;BME280;7392;52.078;11.650;2022-09-09T04:13:59;100311.13;;;12.78;100.00
14612;BME280;7392;52.078;11.650;2022-09-09T04:16:28;100302.22;;;12.79;100.00
14612;BME280;7392;52.078;11.650;2022-09-09T04:18:56;100301.34;;;12.78;100.00
14612;BME280;7392;52.078;11.650;2022-09-09T04:21:26;100306.66;;;12.80;100.00
14612;BME280;7392;52.078;11.650;2022-09-09T04:23:54;100299.53;;;12.80;100.00
14612;BME280;7392;52.078;11.650;2022-09-09T04:26:24;100309.31;;;12.80;100.00
14612;BME280;7392;52.078;11.650;2022-09-09T04:28:52;100311.09;;;12.79;100.00
14612;BME280;7392;52.078;11.650;2022-09-09T04:31:22;100314.66;;;12.78;100.00
14612;BME280;7392;52.078;11.650;2022-09-09T04:33:53;100319.13;;;12.78;100.00
14612;BME280;7392;52.078;11.650;2022-09-09T04:36:25;100305.84;;;12.76;100.00
14612;BME280;7392;52.078;11.650;2022-09-09T04:38:58;100314.69;;;12.77;100.00
14612;BME280;7392;52.078;11.650;2022-09-09T04:41:27;100301.41;;;12.75;100.00
14612;BME280;7392;52.078;11.650;2022-09-09T04:43:55;100314.69;;;12.77;100.00
14612;BME280;7392;52.078;11.650;2022-09-09T04:46:23;100308.50;;;12.76;100.00
14612;BME280;7392;52.078;11.650;2022-09-09T04:48:52;100310.22;;;12.77;100.00
14612;BME280;7392;52.078;11.650;2022-09-09T04:51:22;100307.53;;;12.79;100.00
14612;BME280;7392;52.078;11.650;2022-09-09T04:53:51;100317.34;;;12.78;100.00
14612;BME280;7392;52.078;11.650;2022-09-09T04:56:20;100321.75;;;12.79;100.00
14612;BME280;7392;52.078;11.650;2022-09-09T04:58:56;100322.63;;;12.80;100.00
14612;BME280;7392;52.078;11.650;2022-09-09T05:01:37;100324.41;;;12.79;100.00
14612;BME280;7392;52.078;11.650;2022-09-09T05:04:05;100333.25;;;12.83;100.00
14612;BME280;7392;52.078;11.650;2022-09-09T05:06:34;100321.69;;;12.82;100.00
14612;BME280;7392;52.078;11.650;2022-09-09T05:09:03;100321.66;;;12.84;100.00
14612;BME280;7392;52.078;11.650;2022-09-09T05:11:32;100315.44;;;12.85;100.00
14612;BME280;7392;52.078;11.650;2022-09-09T05:14:24;100322.50;;;12.86;100.00
14612;BME280;7392;52.078;11.650;2022-09-09T05:16:51;100319.78;;;12.89;100.00
14612;BME280;7392;52.078;11.650;2022-09-09T05:19:21;100326.84;;;12.93;100.00
14612;BME280;7392;52.078;11.650;2022-09-09T05:21:50;100329.44;;;12.96;100.00
14612;BME280;7392;52.078;11.650;2022-09-09T05:24:24;100329.34;;;13.01;100.00
14612;BME280;7392;52.078;11.650;2022-09-09T05:26:55;100334.59;;;13.05;100.00
14612;BME280;7392;52.078;11.650;2022-09-09T05:29:28;100336.31;;;13.08;100.00
14612;BME280;7392;52.078;11.650;2022-09-09T05:31:56;100336.25;;;13.13;100.00
14612;BME280;7392;52.078;11.650;2022-09-09T05:34:24;100346.81;;;13.17;100.00
14612;BME280;7392;52.078;11.650;2022-09-09T05:36:52;100346.72;;;13.22;100.00
14612;BME280;7392;52.078;11.650;2022-09-09T05:39:22;100338.63;;;13.26;100.00
14612;BME280;7392;52.078;11.650;2022-09-09T05:41:50;100341.22;;;13.33;100.00
14612;BME280;7392;52.078;11.650;2022-09-09T05:44:18;100336.66;;;13.39;100.00
14612;BME280;7392;52.078;11.650;2022-09-09T05:46:48;100340.97;;;13.45;100.00
14612;BME280;7392;52.078;11.650;2022-09-09T05:49:16;100341.81;;;13.47;100.00
14612;BME280;7392;52.078;11.650;2022-09-09T05:51:44;100348.81;;;13.53;100.00
14612;BME280;7392;52.078;11.650;2022-09-09T05:54:13;100354.06;;;13.57;100.00
14612;BME280;7392;52.078;11.650;2022-09-09T05:56:46;100353.97;;;13.62;100.00
14612;BME280;7392;52.078;11.650;2022-09-09T05:59:18;100358.31;;;13.66;100.00
14612;BME280;7392;52.078;11.650;2022-09-09T06:01:45;100358.19;;;13.72;100.00
14612;BME280;7392;52.078;11.650;2022-09-09T06:04:23;100358.09;;;13.77;100.00
14612;BME280;7392;52.078;11.650;2022-09-09T06:06:52;100358.91;;;13.80;100.00
14612;BME280;7392;52.078;11.650;2022-09-09T06:09:21;100350.78;;;13.85;100.00
14612;BME280;7392;52.078;11.650;2022-09-09T06:11:49;100346.22;;;13.90;100.00
14612;BME280;7392;52.078;11.650;2022-09-09T06:14:19;100350.56;;;13.96;100.00
14612;BME280;7392;52.078;11.650;2022-09-09T06:16:49;100353.09;;;14.02;100.00
14612;BME280;7392;52.078;11.650;2022-09-09T06:19:20;100346.72;;;14.09;100.00
14612;BME280;7392;52.078;11.650;2022-09-09T06:21:49;100341.28;;;14.12;100.00
14612;BME280;7392;52.078;11.650;2022-09-09T06:24:17;100345.66;;;14.16;100.00
14612;BME280;7392;52.078;11.650;2022-09-09T06:26:46;100342.84;;;14.21;100.00
14612;BME280;7392;52.078;11.650;2022-09-09T06:29:19;100342.78;;;14.24;100.00
14612;BME280;7392;52.078;11.650;2022-09-09T06:31:47;100345.41;;;14.27;100.00
14612;BME280;7392;52.078;11.650;2022-09-09T06:34:19;100355.06;;;14.31;100.00
14612;BME280;7392;52.078;11.650;2022-09-09T06:36:53;100359.44;;;14.35;100.00
14612;BME280;7392;52.078;11.650;2022-09-09T06:39:26;100351.38;;;14.38;100.00
14612;BME280;7392;52.078;11.650;2022-09-09T06:41:54;100353.94;;;14.41;100.00
14612;BME280;7392;52.078;11.650;2022-09-09T06:44:42;100364.50;;;14.48;100.00
14612;BME280;7392;52.078;11.650;2022-09-09T06:47:17;100367.91;;;14.54;100.00
14612;BME280;7392;52.078;11.650;2022-09-09T06:49:46;100357.13;;;14.57;100.00
14612;BME280;7392;52.078;11.650;2022-09-09T06:52:16;100355.25;;;14.63;100.00
14612;BME280;7392;52.078;11.650;2022-09-09T06:54:46;100363.09;;;14.69;100.00
14612;BME280;7392;52.078;11.650;2022-09-09T06:57:16;100355.91;;;14.72;100.00
14612;BME280;7392;52.078;11.650;2022-09-09T07:00:05;100362.97;;;14.75;100.00
14612;BME280;7392;52.078;11.650;2022-09-09T07:02:36;100358.38;;;14.80;100.00
14612;BME280;7392;52.078;11.650;2022-09-09T07:05:09;100348.47;;;14.84;100.00
14612;BME280;7392;52.078;11.650;2022-09-09T07:07:46;100357.22;;;14.90;100.00
14612;BME280;7392;52.078;11.650;2022-09-09T07:10:17;100352.59;;;14.97;100.00
14612;BME280;7392;52.078;11.650;2022-09-09T07:12:50;100357.72;;;15.05;100.00
14612;BME280;7392;52.078;11.650;2022-09-09T07:15:21;100353.06;;;15.13;100.00
14612;BME280;7392;52.078;11.650;2022-09-09T07:17:49;100357.28;;;15.22;100.00
14612;BME280;7392;52.078;11.650;2022-09-09T07:20:17;100355.25;;;15.30;100.00
14612;BME280;7392;52.078;11.650;2022-09-09T07:22:46;100360.34;;;15.41;100.00
14612;BME280;7392;52.078;11.650;2022-09-09T07:25:14;100367.19;;;15.51;100.00
14612;BME280;7392;52.078;11.650;2022-09-09T07:27:47;100363.34;;;15.60;100.00
14612;BME280;7392;52.078;11.650;2022-09-09T07:30:26;100364.81;;;15.71;100.00
14612;BME280;7392;52.078;11.650;2022-09-09T07:32:57;100362.69;;;15.83;100.00
14612;BME280;7392;52.078;11.650;2022-09-09T07:35:26;100362.47;;;15.91;100.00
14612;BME280;7392;52.078;11.650;2022-09-09T07:37:55;100363.13;;;15.99;100.00
14612;BME280;7392;52.078;11.650;2022-09-09T07:40:25;100364.69;;;16.06;100.00
14612;BME280;7392;52.078;11.650;2022-09-09T07:46:26;100361.19;;;16.32;100.00
14612;BME280;7392;52.078;11.650;2022-09-09T07:48:59;100364.44;;;16.42;100.00
14612;BME280;7392;52.078;11.650;2022-09-09T07:51:56;100360.66;;;16.49;100.00
14612;BME280;7392;52.078;11.650;2022-09-09T07:58:09;100365.31;;;16.71;100.00
14612;BME280;7392;52.078;11.650;2022-09-09T08:00:52;100373.16;;;16.75;100.00
14612;BME280;7392;52.078;11.650;2022-09-09T08:04:00;100373.84;;;16.82;100.00
14612;BME280;7392;52.078;11.650;2022-09-09T08:07:17;100379.13;;;16.85;100.00
14612;BME280;7392;52.078;11.650;2022-09-09T08:10:21;100371.97;;;16.86;100.00
14612;BME280;7392;52.078;11.650;2022-09-09T08:13:15;100378.22;;;16.86;100.00
14612;BME280;7392;52.078;11.650;2022-09-09T08:16:20;100377.03;;;16.95;100.00
14612;BME280;7392;52.078;11.650;2022-09-09T08:18:49;100371.34;;;17.04;100.00
14612;BME280;7392;52.078;11.650;2022-09-09T08:21:20;100375.41;;;17.16;100.00
14612;BME280;7392;52.078;11.650;2022-09-09T08:23:51;100374.09;;;17.28;100.00
14612;BME280;7392;52.078;11.650;2022-09-09T08:26:25;100365.47;;;17.43;100.00
14612;BME280;7392;52.078;11.650;2022-09-09T08:28:55;100368.47;;;17.59;100.00
14612;BME280;7392;52.078;11.650;2022-09-09T08:31:28;100371.41;;;17.76;100.00
14612;BME280;7392;52.078;11.650;2022-09-09T08:33:57;100378.94;;;17.92;100.00
14612;BME280;7392;52.078;11.650;2022-09-09T08:36:28;100376.72;;;18.02;99.84
14612;BME280;7392;52.078;11.650;2022-09-09T08:38:57;100380.75;;;18.13;99.00
14612;BME280;7392;52.078;11.650;2022-09-09T08:45:03;100371.03;;;18.33;95.67
14612;BME280;7392;52.078;11.650;2022-09-09T08:47:46;100376.03;;;18.42;94.33
14612;BME280;7392;52.078;11.650;2022-09-09T08:50:22;100385.75;;;18.46;92.93
14612;BME280;7392;52.078;11.650;2022-09-09T08:53:04;100388.09;;;18.54;92.41
14612;BME280;7392;52.078;11.650;2022-09-09T08:55:41;100399.38;;;18.64;92.10
14612;BME280;7392;52.078;11.650;2022-09-09T08:58:14;100388.84;;;18.80;92.05
14612;BME280;7392;52.078;11.650;2022-09-09T09:00:55;100389.25;;;18.93;91.05
14612;BME280;7392;52.078;11.650;2022-09-09T09:03:35;100391.41;;;19.05;89.82
14612;BME280;7392;52.078;11.650;2022-09-09T09:06:19;100397.19;;;19.16;89.15
14612;BME280;7392;52.078;11.650;2022-09-09T09:08:59;100410.06;;;19.30;89.02
14612;BME280;7392;52.078;11.650;2022-09-09T09:11:35;100399.69;;;19.41;87.49
14612;BME280;7392;52.078;11.650;2022-09-09T09:14:09;100398.13;;;19.56;87.62
14612;BME280;7392;52.078;11.650;2022-09-09T09:16:44;100402.09;;;19.68;86.54
14612;BME280;7392;52.078;11.650;2022-09-09T09:19:17;100403.09;;;19.86;86.86
14612;BME280;7392;52.078;11.650;2022-09-09T09:21:53;100393.50;;;19.99;85.00
14612;BME280;7392;52.078;11.650;2022-09-09T09:24:27;100398.47;;;20.09;84.03
14612;BME280;7392;52.078;11.650;2022-09-09T09:27:12;100398.00;;;20.18;82.92
14612;BME280;7392;52.078;11.650;2022-09-09T09:29:45;100400.50;;;20.23;81.70
14612;BME280;7392;52.078;11.650;2022-09-09T09:32:59;100376.56;;;20.34;82.12
14612;BME280;7392;52.078;11.650;2022-09-09T09:36:40;100390.66;;;20.58;81.80
14612;BME280;7392;52.078;11.650;2022-09-09T09:39:32;100388.34;;;20.69;80.53
14612;BME280;7392;52.078;11.650;2022-09-09T09:42:23;100382.50;;;20.79;79.67
14612;BME280;7392;52.078;11.650;2022-09-09T09:44:55;100383.88;;;20.87;77.83
14612;BME280;7392;52.078;11.650;2022-09-09T09:47:23;100390.63;;;20.96;78.96
14612;BME280;7392;52.078;11.650;2022-09-09T09:50:02;100383.53;;;21.11;78.63
14612;BME280;7392;52.078;11.650;2022-09-09T09:52:41;100382.22;;;21.20;76.40
14612;BME280;7392;52.078;11.650;2022-09-09T09:55:13;100386.41;;;21.25;76.06
14612;BME280;7392;52.078;11.650;2022-09-09T09:57:44;100397.69;;;21.34;75.18
14612;BME280;7392;52.078;11.650;2022-09-09T10:00:17;100392.44;;;21.30;74.41
14612;BME280;7392;52.078;11.650;2022-09-09T10:03:01;100390.31;;;21.20;74.42
14612;BME280;7392;52.078;11.650;2022-09-09T10:05:35;100388.16;;;21.09;74.64
14612;BME280;7392;52.078;11.650;2022-09-09T10:08:12;100389.13;;;21.08;74.63
14612;BME280;7392;52.078;11.650;2022-09-09T10:10:52;100392.75;;;21.24;74.99
14612;BME280;7392;52.078;11.650;2022-09-09T10:13:28;100386.13;;;21.49;74.79
14612;BME280;7392;52.078;11.650;2022-09-09T10:16:06;100390.09;;;21.75;73.41
14612;BME280;7392;52.078;11.650;2022-09-09T10:18:47;100393.13;;;22.02;73.24
14612;BME280;7392;52.078;11.650;2022-09-09T10:21:32;100390.16;;;22.23;71.75
14612;BME280;7392;52.078;11.650;2022-09-09T10:24:20;100398.06;;;22.44;70.23
14612;BME280;7392;52.078;11.650;2022-09-09T10:26:55;100391.94;;;22.56;69.36
14612;BME280;7392;52.078;11.650;2022-09-09T10:29:37;100385.47;;;22.74;69.27
14612;BME280;7392;52.078;11.650;2022-09-09T10:32:28;100377.19;;;22.92;68.64
14612;BME280;7392;52.078;11.650;2022-09-09T10:35:04;100381.06;;;22.88;67.78
14612;BME280;7392;52.078;11.650;2022-09-09T10:37:55;100384.91;;;22.84;68.69
14612;BME280;7392;52.078;11.650;2022-09-09T10:40:32;100377.75;;;22.83;69.49
14612;BME280;7392;52.078;11.650;2022-09-09T10:43:16;100377.59;;;22.86;68.50
14612;BME280;7392;52.078;11.650;2022-09-09T10:45:57;100377.94;;;22.79;68.05
14612;BME280;7392;52.078;11.650;2022-09-09T10:48:41;100359.78;;;22.82;69.13
14612;BME280;7392;52.078;11.650;2022-09-09T10:51:22;100367.97;;;22.96;69.33
14612;BME280;7392;52.078;11.650;2022-09-09T10:54:00;100377.56;;;23.32;68.75
14612;BME280;7392;52.078;11.650;2022-09-09T10:56:34;100375.53;;;23.50;65.00
14612;BME280;7392;52.078;11.650;2022-09-09T10:59:06;100368.38;;;23.63;64.30
14612;BME280;7392;52.078;11.650;2022-09-09T11:01:40;100374.19;;;23.71;64.11
14612;BME280;7392;52.078;11.650;2022-09-09T11:04:15;100375.16;;;23.70;63.18
14612;BME280;7392;52.078;11.650;2022-09-09T11:06:49;100375.06;;;23.72;62.07
14612;BME280;7392;52.078;11.650;2022-09-09T11:09:22;100370.53;;;23.73;61.21
14612;BME280;7392;52.078;11.650;2022-09-09T11:11:53;100363.75;;;23.80;60.49
14612;BME280;7392;52.078;11.650;2022-09-09T11:14:27;100375.41;;;23.82;59.07
14612;BME280;7392;52.078;11.650;2022-09-09T11:17:04;100378.59;;;23.88;59.36
14612;BME280;7392;52.078;11.650;2022-09-09T11:19:34;100379.47;;;24.03;58.87
14612;BME280;7392;52.078;11.650;2022-09-09T11:22:07;100376.91;;;24.15;58.21
14612;BME280;7392;52.078;11.650;2022-09-09T11:24:53;100373.19;;;24.30;58.01
14612;BME280;7392;52.078;11.650;2022-09-09T11:27:44;100380.22;;;24.61;58.78
14612;BME280;7392;52.078;11.650;2022-09-09T11:30:19;100367.97;;;24.69;57.78
14612;BME280;7392;52.078;11.650;2022-09-09T11:36:34;100364.78;;;24.89;56.80
14612;BME280;7392;52.078;11.650;2022-09-09T11:39:18;100363.22;;;25.25;57.13
14612;BME280;7392;52.078;11.650;2022-09-09T11:41:52;100360.88;;;25.33;53.44
14612;BME280;7392;52.078;11.650;2022-09-09T11:44:28;100354.25;;;25.37;52.76
14612;BME280;7392;52.078;11.650;2022-09-09T11:46:57;100362.72;;;25.33;53.65
14612;BME280;7392;52.078;11.650;2022-09-09T11:49:27;100364.69;;;25.44;53.84
14612;BME280;7392;52.078;11.650;2022-09-09T11:51:55;100359.44;;;25.53;53.29
14612;BME280;7392;52.078;11.650;2022-09-09T11:54:30;100356.19;;;25.48;53.59
14612;BME280;7392;52.078;11.650;2022-09-09T11:56:58;100357.06;;;25.62;54.16
14612;BME280;7392;52.078;11.650;2022-09-09T11:59:29;100364.56;;;25.58;53.31
14612;BME280;7392;52.078;11.650;2022-09-09T12:01:58;100357.84;;;25.51;55.07
14612;BME280;7392;52.078;11.650;2022-09-09T12:04:33;100355.34;;;25.48;55.05
14612;BME280;7392;52.078;11.650;2022-09-09T12:07:05;100358.81;;;25.50;54.78
14612;BME280;7392;52.078;11.650;2022-09-09T12:09:52;100345.97;;;25.52;51.03
14612;BME280;7392;52.078;11.650;2022-09-09T12:12:31;100352.72;;;25.46;51.91
14612;BME280;7392;52.078;11.650;2022-09-09T12:15:22;100353.81;;;25.56;51.89
14612;BME280;7392;52.078;11.650;2022-09-09T12:17:53;100345.66;;;25.69;52.55
14612;BME280;7392;52.078;11.650;2022-09-09T12:20:32;100353.47;;;25.87;51.53
14612;BME280;7392;52.078;11.650;2022-09-09T12:23:14;100356.72;;;25.92;50.61
14612;BME280;7392;52.078;11.650;2022-09-09T12:25:54;100354.78;;;25.81;51.25
14612;BME280;7392;52.078;11.650;2022-09-09T12:28:52;100360.22;;;25.68;51.29
14612;BME280;7392;52.078;11.650;2022-09-09T12:31:32;100359.16;;;25.45;51.26
14612;BME280;7392;52.078;11.650;2022-09-09T12:34:09;100359.81;;;25.49;52.19
14612;BME280;7392;52.078;11.650;2022-09-09T12:36:38;100356.97;;;25.63;51.96
14612;BME280;7392;52.078;11.650;2022-09-09T12:39:16;100346.16;;;25.87;52.28
14612;BME280;7392;52.078;11.650;2022-09-09T12:41:52;100354.41;;;26.11;51.41
14612;BME280;7392;52.078;11.650;2022-09-09T12:44:24;100354.28;;;26.26;49.88
14612;BME280;7392;52.078;11.650;2022-09-09T12:46:56;100364.69;;;26.32;48.88
14612;BME280;7392;52.078;11.650;2022-09-09T12:49:29;100336.84;;;26.28;48.99
14612;BME280;7392;52.078;11.650;2022-09-09T12:52:02;100343.41;;;26.50;49.93
14612;BME280;7392;52.078;11.650;2022-09-09T12:54:34;100330.03;;;26.71;49.20
14612;BME280;7392;52.078;11.650;2022-09-09T12:57:02;100317.69;;;26.78;49.05
14612;BME280;7392;52.078;11.650;2022-09-09T12:59:35;100326.34;;;26.83;48.85
14612;BME280;7392;52.078;11.650;2022-09-09T13:02:18;100325.72;;;26.56;49.94
14612;BME280;7392;52.078;11.650;2022-09-09T13:04:46;100336.00;;;26.15;49.72
14612;BME280;7392;52.078;11.650;2022-09-09T13:07:14;100313.75;;;25.97;51.40
14612;BME280;7392;52.078;11.650;2022-09-09T13:09:43;100318.88;;;26.02;51.72
14612;BME280;7392;52.078;11.650;2022-09-09T13:12:15;100318.63;;;26.05;52.15
14612;BME280;7392;52.078;11.650;2022-09-09T13:14:45;100315.34;;;26.12;52.77
14612;BME280;7392;52.078;11.650;2022-09-09T13:17:21;100318.06;;;26.12;53.09
14612;BME280;7392;52.078;11.650;2022-09-09T13:19:49;100313.97;;;26.07;52.90
14612;BME280;7392;52.078;11.650;2022-09-09T13:22:28;100318.97;;;26.00;53.58
14612;BME280;7392;52.078;11.650;2022-09-09T13:25:02;100317.38;;;26.22;53.60
14612;BME280;7392;52.078;11.650;2022-09-09T13:27:32;100311.91;;;26.35;53.57
14612;BME280;7392;52.078;11.650;2022-09-09T13:30:01;100306.00;;;26.41;52.51
14612;BME280;7392;52.078;11.650;2022-09-09T13:32:30;100291.63;;;26.63;51.28
14612;BME280;7392;52.078;11.650;2022-09-09T13:34:59;100295.16;;;26.76;50.44